sensor_id;sensor_type;location;lat;lon;timestamp;P1;durP1;ratioP1;P2;durP2;ratioP2
61525;SDS011;47394;41.366;-8.738;2022-10-31T00:01:35;31.92;;;13.13;;
61525;SDS011;47394;41.366;-8.738;2022-10-31T00:03:36;29.55;;;14.65;;
61525;SDS011;47394;41.366;-8.738;2022-10-31T00:05:40;30.92;;;13.85;;
61525;SDS011;47394;41.366;-8.738;2022-10-31T00:07:40;25.85;;;12.60;;
61525;SDS011;47394;41.366;-8.738;2022-10-31T00:09:41;30.35;;;14.23;;
61525;SDS011;47394;41.366;-8.738;2022-10-31T00:11:41;26.65;;;13.77;;
61525;SDS011;47394;41.366;-8.738;2022-10-31T00:13:42;22.58;;;13.40;;
61525;SDS011;47394;41.366;-8.738;2022-10-31T00:15:42;23.13;;;12.80;;
61525;SDS011;47394;41.366;-8.738;2022-10-31T00:17:43;23.83;;;12.90;;
61525;SDS011;47394;41.366;-8.738;2022-10-31T00:19:43;23.52;;;12.80;;
61525;SDS011;47394;41.366;-8.738;2022-10-31T00:21:44;20.85;;;12.45;;
61525;SDS011;47394;41.366;-8.738;2022-10-31T00:23:44;28.98;;;13.02;;
61525;SDS011;47394;41.366;-8.738;2022-10-31T00:25:45;21.83;;;12.48;;
61525;SDS011;47394;41.366;-8.738;2022-10-31T00:27:45;23.63;;;13.32;;
61525;SDS011;47394;41.366;-8.738;2022-10-31T00:29:46;21.30;;;13.63;;
61525;SDS011;47394;41.366;-8.738;2022-10-31T00:31:46;20.55;;;11.68;;
61525;SDS011;47394;41.366;-8.738;2022-10-31T00:33:47;27.10;;;13.38;;
61525;SDS011;47394;41.366;-8.738;2022-10-31T00:35:50;34.42;;;14.43;;
61525;SDS011;47394;41.366;-8.738;2022-10-31T00:37:51;30.88;;;14.35;;
61525;SDS011;47394;41.366;-8.738;2022-10-31T00:39:52;24.98;;;14.35;;
61525;SDS011;47394;41.366;-8.738;2022-10-31T00:41:52;23.42;;;13.27;;
61525;SDS011;47394;41.366;-8.738;2022-10-31T00:43:53;24.17;;;12.95;;
61525;SDS011;47394;41.366;-8.738;2022-10-31T00:45:53;25.08;;;13.10;;
61525;SDS011;47394;41.366;-8.738;2022-10-31T00:47:54;26.00;;;14.10;;
61525;SDS011;47394;41.366;-8.738;2022-10-31T00:49:55;27.15;;;14.38;;
61525;SDS011;47394;41.366;-8.738;2022-10-31T00:51:55;27.75;;;15.05;;
61525;SDS011;47394;41.366;-8.738;2022-10-31T00:53:56;24.90;;;14.02;;
61525;SDS011;47394;41.366;-8.738;2022-10-31T00:55:56;28.50;;;13.77;;
61525;SDS011;47394;41.366;-8.738;2022-10-31T00:57:57;25.08;;;14.30;;
61525;SDS011;47394;41.366;-8.738;2022-10-31T00:59:58;25.27;;;12.98;;
61525;SDS011;47394;41.366;-8.738;2022-10-31T01:01:58;21.67;;;12.20;;
61525;SDS011;47394;41.366;-8.738;2022-10-31T01:03:59;27.38;;;13.25;;
61525;SDS011;47394;41.366;-8.738;2022-10-31T01:08:00;27.67;;;14.15;;
61525;SDS011;47394;41.366;-8.738;2022-10-31T01:10:01;22.95;;;12.77;;
61525;SDS011;47394;41.366;-8.738;2022-10-31T01:12:01;26.67;;;13.27;;
61525;SDS011;47394;41.366;-8.738;2022-10-31T01:14:02;23.23;;;14.52;;
61525;SDS011;47394;41.366;-8.738;2022-10-31T01:18:06;27.25;;;13.98;;
61525;SDS011;47394;41.366;-8.738;2022-10-31T01:20:07;33.42;;;13.93;;
61525;SDS011;47394;41.366;-8.738;2022-10-31T01:22:08;23.92;;;13.43;;
61525;SDS011;47394;41.366;-8.738;2022-10-31T01:24:08;23.23;;;13.60;;
61525;SDS011;47394;41.366;-8.738;2022-10-31T01:26:15;23.90;;;12.30;;
61525;SDS011;47394;41.366;-8.738;2022-10-31T01:28:16;29.23;;;13.32;;
61525;SDS011;47394;41.366;-8.738;2022-10-31T01:30:17;26.98;;;13.32;;
61525;SDS011;47394;41.366;-8.738;2022-10-31T01:32:17;27.88;;;14.23;;
61525;SDS011;47394;41.366;-8.738;2022-10-31T01:34:19;27.55;;;13.30;;
61525;SDS011;47394;41.366;-8.738;2022-10-31T01:36:21;27.98;;;14.02;;
61525;SDS011;47394;41.366;-8.738;2022-10-31T01:38:24;26.73;;;13.13;;
61525;SDS011;47394;41.366;-8.738;2022-10-31T01:40:28;24.33;;;13.98;;
61525;SDS011;47394;41.366;-8.738;2022-10-31T01:42:29;28.85;;;13.27;;
61525;SDS011;47394;41.366;-8.738;2022-10-31T01:46:34;22.88;;;12.40;;
61525;SDS011;47394;41.366;-8.738;2022-10-31T01:48:36;22.42;;;11.32;;
61525;SDS011;47394;41.366;-8.738;2022-10-31T01:50:37;20.38;;;13.00;;
61525;SDS011;47394;41.366;-8.738;2022-10-31T01:52:43;19.17;;;12.65;;
61525;SDS011;47394;41.366;-8.738;2022-10-31T01:54:46;22.92;;;11.98;;
61525;SDS011;47394;41.366;-8.738;2022-10-31T01:56:49;21.50;;;11.80;;
61525;SDS011;47394;41.366;-8.738;2022-10-31T01:58:50;19.33;;;11.57;;
61525;SDS011;47394;41.366;-8.738;2022-10-31T02:00:53;21.20;;;11.15;;
61525;SDS011;47394;41.366;-8.738;2022-10-31T02:02:56;17.63;;;11.45;;
61525;SDS011;47394;41.366;-8.738;2022-10-31T02:04:56;16.60;;;11.88;;
61525;SDS011;47394;41.366;-8.738;2022-10-31T02:07:00;21.67;;;12.70;;
61525;SDS011;47394;41.366;-8.738;2022-10-31T02:09:04;26.65;;;13.73;;
61525;SDS011;47394;41.366;-8.738;2022-10-31T02:11:05;25.90;;;13.50;;
61525;SDS011;47394;41.366;-8.738;2022-10-31T02:13:08;17.90;;;11.95;;
61525;SDS011;47394;41.366;-8.738;2022-10-31T02:15:14;19.33;;;12.70;;
61525;SDS011;47394;41.366;-8.738;2022-10-31T02:17:17;19.45;;;13.15;;
61525;SDS011;47394;41.366;-8.738;2022-10-31T02:21:42;20.88;;;13.32;;
61525;SDS011;47394;41.366;-8.738;2022-10-31T02:26:07;26.35;;;14.50;;
61525;SDS011;47394;41.366;-8.738;2022-10-31T02:28:32;25.02;;;14.70;;
61525;SDS011;47394;41.366;-8.738;2022-10-31T02:34:56;25.40;;;13.70;;
61525;SDS011;47394;41.366;-8.738;2022-10-31T02:39:11;21.00;;;14.20;;
61525;SDS011;47394;41.366;-8.738;2022-10-31T02:43:34;23.25;;;13.32;;
61525;SDS011;47394;41.366;-8.738;2022-10-31T02:45:38;27.15;;;13.60;;
61525;SDS011;47394;41.366;-8.738;2022-10-31T02:47:42;20.95;;;13.35;;
61525;SDS011;47394;41.366;-8.738;2022-10-31T02:50:01;17.73;;;12.25;;
61525;SDS011;47394;41.366;-8.738;2022-10-31T02:52:12;19.77;;;11.80;;
61525;SDS011;47394;41.366;-8.738;2022-10-31T02:54:31;26.65;;;12.73;;
61525;SDS011;47394;41.366;-8.738;2022-10-31T02:56:32;17.70;;;11.93;;
61525;SDS011;47394;41.366;-8.738;2022-10-31T02:58:35;27.40;;;11.65;;
61525;SDS011;47394;41.366;-8.738;2022-10-31T03:00:37;16.33;;;10.95;;
61525;SDS011;47394;41.366;-8.738;2022-10-31T03:02:42;23.48;;;10.48;;
61525;SDS011;47394;41.366;-8.738;2022-10-31T03:04:56;24.55;;;10.55;;
61525;SDS011;47394;41.366;-8.738;2022-10-31T03:11:12;12.40;;;5.93;;
61525;SDS011;47394;41.366;-8.738;2022-10-31T03:15:34;11.63;;;5.45;;
61525;SDS011;47394;41.366;-8.738;2022-10-31T03:17:42;12.48;;;4.57;;
61525;SDS011;47394;41.366;-8.738;2022-10-31T03:19:47;10.80;;;4.53;;
61525;SDS011;47394;41.366;-8.738;2022-10-31T03:21:50;9.50;;;5.05;;
61525;SDS011;47394;41.366;-8.738;2022-10-31T03:23:52;10.70;;;4.70;;
61525;SDS011;47394;41.366;-8.738;2022-10-31T03:25:54;8.20;;;4.03;;
61525;SDS011;47394;41.366;-8.738;2022-10-31T03:27:59;11.57;;;5.28;;
61525;SDS011;47394;41.366;-8.738;2022-10-31T03:30:03;14.00;;;4.47;;
61525;SDS011;47394;41.366;-8.738;2022-10-31T03:32:12;10.57;;;4.63;;
61525;SDS011;47394;41.366;-8.738;2022-10-31T03:36:14;10.80;;;5.07;;
61525;SDS011;47394;41.366;-8.738;2022-10-31T03:38:17;13.95;;;4.80;;
61525;SDS011;47394;41.366;-8.738;2022-10-31T03:40:19;11.25;;;4.25;;
61525;SDS011;47394;41.366;-8.738;2022-10-31T03:42:22;9.57;;;4.70;;
61525;SDS011;47394;41.366;-8.738;2022-10-31T03:44:23;12.15;;;5.30;;
61525;SDS011;47394;41.366;-8.738;2022-10-31T03:46:32;11.43;;;4.57;;
61525;SDS011;47394;41.366;-8.738;2022-10-31T03:48:33;11.05;;;4.93;;
61525;SDS011;47394;41.366;-8.738;2022-10-31T03:50:39;11.85;;;4.05;;
61525;SDS011;47394;41.366;-8.738;2022-10-31T03:54:55;8.82;;;3.70;;
61525;SDS011;47394;41.366;-8.738;2022-10-31T03:56:57;9.80;;;3.95;;
61525;SDS011;47394;41.366;-8.738;2022-10-31T03:59:10;8.32;;;3.85;;
61525;SDS011;47394;41.366;-8.738;2022-10-31T04:01:13;7.97;;;3.40;;
61525;SDS011;47394;41.366;-8.738;2022-10-31T04:03:21;7.97;;;4.07;;
61525;SDS011;47394;41.366;-8.738;2022-10-31T04:05:24;8.57;;;3.55;;
61525;SDS011;47394;41.366;-8.738;2022-10-31T04:07:27;8.55;;;3.63;;
61525;SDS011;47394;41.366;-8.738;2022-10-31T04:09:28;10.60;;;3.47;;
61525;SDS011;47394;41.366;-8.738;2022-10-31T04:11:33;10.98;;;3.90;;
61525;SDS011;47394;41.366;-8.738;2022-10-31T04:14:05;10.95;;;3.50;;
61525;SDS011;47394;41.366;-8.738;2022-10-31T04:16:09;6.97;;;3.25;;
61525;SDS011;47394;41.366;-8.738;2022-10-31T04:18:10;6.45;;;2.60;;
61525;SDS011;47394;41.366;-8.738;2022-10-31T04:20:11;6.70;;;2.60;;
61525;SDS011;47394;41.366;-8.738;2022-10-31T04:22:15;6.80;;;2.58;;
61525;SDS011;47394;41.366;-8.738;2022-10-31T04:24:15;6.90;;;2.45;;
61525;SDS011;47394;41.366;-8.738;2022-10-31T04:26:16;3.70;;;2.30;;
61525;SDS011;47394;41.366;-8.738;2022-10-31T04:28:18;6.40;;;1.95;;
61525;SDS011;47394;41.366;-8.738;2022-10-31T04:30:18;7.07;;;2.08;;
61525;SDS011;47394;41.366;-8.738;2022-10-31T04:32:19;9.15;;;2.20;;
61525;SDS011;47394;41.366;-8.738;2022-10-31T04:34:19;5.40;;;2.40;;
61525;SDS011;47394;41.366;-8.738;2022-10-31T04:36:20;6.25;;;2.13;;
61525;SDS011;47394;41.366;-8.738;2022-10-31T04:38:21;3.95;;;2.03;;
61525;SDS011;47394;41.366;-8.738;2022-10-31T04:40:23;5.03;;;2.10;;
61525;SDS011;47394;41.366;-8.738;2022-10-31T04:43:02;8.23;;;1.90;;
61525;SDS011;47394;41.366;-8.738;2022-10-31T04:45:03;4.28;;;1.85;;
61525;SDS011;47394;41.366;-8.738;2022-10-31T04:47:05;6.10;;;2.17;;
61525;SDS011;47394;41.366;-8.738;2022-10-31T04:49:06;5.85;;;2.53;;
61525;SDS011;47394;41.366;-8.738;2022-10-31T04:51:06;7.25;;;2.20;;
61525;SDS011;47394;41.366;-8.738;2022-10-31T04:53:07;7.95;;;2.10;;
61525;SDS011;47394;41.366;-8.738;2022-10-31T04:55:15;9.68;;;2.05;;
61525;SDS011;47394;41.366;-8.738;2022-10-31T04:57:41;9.32;;;2.30;;
61525;SDS011;47394;41.366;-8.738;2022-10-31T04:59:42;5.70;;;1.98;;
61525;SDS011;47394;41.366;-8.738;2022-10-31T05:01:44;8.77;;;2.42;;
61525;SDS011;47394;41.366;-8.738;2022-10-31T05:03:45;7.18;;;2.22;;
61525;SDS011;47394;41.366;-8.738;2022-10-31T05:05:45;7.90;;;2.95;;
61525;SDS011;47394;41.366;-8.738;2022-10-31T05:07:47;7.20;;;2.25;;
61525;SDS011;47394;41.366;-8.738;2022-10-31T05:09:48;5.35;;;2.20;;
61525;SDS011;47394;41.366;-8.738;2022-10-31T05:11:48;8.80;;;2.70;;
61525;SDS011;47394;41.366;-8.738;2022-10-31T05:14:07;3.45;;;1.90;;
61525;SDS011;47394;41.366;-8.738;2022-10-31T05:16:26;5.55;;;2.13;;
61525;SDS011;47394;41.366;-8.738;2022-10-31T05:18:49;4.43;;;2.28;;
61525;SDS011;47394;41.366;-8.738;2022-10-31T05:21:08;7.53;;;2.10;;
61525;SDS011;47394;41.366;-8.738;2022-10-31T05:23:11;4.10;;;1.92;;
61525;SDS011;47394;41.366;-8.738;2022-10-31T05:25:12;5.88;;;2.28;;
61525;SDS011;47394;41.366;-8.738;2022-10-31T05:27:13;5.40;;;2.20;;
61525;SDS011;47394;41.366;-8.738;2022-10-31T05:29:13;4.60;;;2.17;;
61525;SDS011;47394;41.366;-8.738;2022-10-31T05:31:14;3.60;;;2.30;;
61525;SDS011;47394;41.366;-8.738;2022-10-31T05:33:15;7.07;;;2.20;;
61525;SDS011;47394;41.366;-8.738;2022-10-31T05:35:34;7.18;;;2.20;;
61525;SDS011;47394;41.366;-8.738;2022-10-31T05:38:10;3.20;;;1.90;;
61525;SDS011;47394;41.366;-8.738;2022-10-31T05:40:12;5.80;;;1.90;;
61525;SDS011;47394;41.366;-8.738;2022-10-31T05:42:13;4.80;;;2.10;;
61525;SDS011;47394;41.366;-8.738;2022-10-31T05:44:14;7.53;;;1.85;;
61525;SDS011;47394;41.366;-8.738;2022-10-31T05:46:40;5.30;;;1.85;;
61525;SDS011;47394;41.366;-8.738;2022-10-31T05:48:59;8.38;;;1.80;;
61525;SDS011;47394;41.366;-8.738;2022-10-31T05:51:18;4.88;;;1.73;;
61525;SDS011;47394;41.366;-8.738;2022-10-31T05:53:21;5.53;;;2.10;;
61525;SDS011;47394;41.366;-8.738;2022-10-31T05:55:21;6.13;;;1.83;;
61525;SDS011;47394;41.366;-8.738;2022-10-31T05:57:37;6.80;;;1.95;;
61525;SDS011;47394;41.366;-8.738;2022-10-31T05:59:38;8.93;;;2.10;;
61525;SDS011;47394;41.366;-8.738;2022-10-31T06:01:38;4.55;;;2.00;;
61525;SDS011;47394;41.366;-8.738;2022-10-31T06:03:44;2.70;;;1.42;;
61525;SDS011;47394;41.366;-8.738;2022-10-31T06:05:49;6.70;;;1.80;;
61525;SDS011;47394;41.366;-8.738;2022-10-31T06:07:49;7.07;;;1.98;;
61525;SDS011;47394;41.366;-8.738;2022-10-31T06:09:50;5.28;;;1.80;;
61525;SDS011;47394;41.366;-8.738;2022-10-31T06:11:55;5.32;;;1.83;;
61525;SDS011;47394;41.366;-8.738;2022-10-31T06:13:58;9.63;;;2.45;;
61525;SDS011;47394;41.366;-8.738;2022-10-31T06:16:06;10.93;;;2.38;;
61525;SDS011;47394;41.366;-8.738;2022-10-31T06:18:12;11.27;;;2.22;;
61525;SDS011;47394;41.366;-8.738;2022-10-31T06:20:24;10.80;;;2.25;;
61525;SDS011;47394;41.366;-8.738;2022-10-31T06:22:33;5.65;;;2.47;;
61525;SDS011;47394;41.366;-8.738;2022-10-31T06:24:34;10.13;;;2.78;;
61525;SDS011;47394;41.366;-8.738;2022-10-31T06:26:40;6.95;;;3.08;;
61525;SDS011;47394;41.366;-8.738;2022-10-31T06:28:41;8.10;;;2.60;;
61525;SDS011;47394;41.366;-8.738;2022-10-31T06:30:57;5.38;;;2.22;;
61525;SDS011;47394;41.366;-8.738;2022-10-31T06:33:03;10.52;;;2.50;;
61525;SDS011;47394;41.366;-8.738;2022-10-31T06:35:04;12.30;;;2.83;;
61525;SDS011;47394;41.366;-8.738;2022-10-31T06:37:07;10.50;;;2.20;;
61525;SDS011;47394;41.366;-8.738;2022-10-31T06:39:08;9.15;;;2.58;;
61525;SDS011;47394;41.366;-8.738;2022-10-31T06:41:10;11.57;;;2.63;;
61525;SDS011;47394;41.366;-8.738;2022-10-31T06:43:17;11.55;;;2.50;;
61525;SDS011;47394;41.366;-8.738;2022-10-31T06:45:19;9.38;;;2.80;;
61525;SDS011;47394;41.366;-8.738;2022-10-31T06:47:40;15.05;;;2.92;;
61525;SDS011;47394;41.366;-8.738;2022-10-31T06:49:44;17.40;;;3.40;;
61525;SDS011;47394;41.366;-8.738;2022-10-31T06:51:49;14.07;;;3.13;;
61525;SDS011;47394;41.366;-8.738;2022-10-31T06:53:50;12.88;;;3.35;;
61525;SDS011;47394;41.366;-8.738;2022-10-31T06:55:52;12.10;;;3.27;;
61525;SDS011;47394;41.366;-8.738;2022-10-31T06:57:53;18.75;;;3.47;;
61525;SDS011;47394;41.366;-8.738;2022-10-31T06:59:54;23.58;;;3.55;;
61525;SDS011;47394;41.366;-8.738;2022-10-31T07:02:11;19.73;;;3.90;;
61525;SDS011;47394;41.366;-8.738;2022-10-31T07:04:13;21.35;;;3.80;;
61525;SDS011;47394;41.366;-8.738;2022-10-31T07:06:14;24.73;;;4.43;;
61525;SDS011;47394;41.366;-8.738;2022-10-31T07:08:15;18.05;;;3.63;;
61525;SDS011;47394;41.366;-8.738;2022-10-31T07:10:16;15.00;;;3.60;;
61525;SDS011;47394;41.366;-8.738;2022-10-31T07:12:25;16.05;;;3.50;;
61525;SDS011;47394;41.366;-8.738;2022-10-31T07:14:31;30.52;;;4.47;;
61525;SDS011;47394;41.366;-8.738;2022-10-31T07:16:32;28.42;;;4.57;;
61525;SDS011;47394;41.366;-8.738;2022-10-31T07:18:33;21.58;;;4.90;;
61525;SDS011;47394;41.366;-8.738;2022-10-31T07:20:34;27.85;;;5.07;;
61525;SDS011;47394;41.366;-8.738;2022-10-31T07:22:36;42.60;;;6.07;;
61525;SDS011;47394;41.366;-8.738;2022-10-31T07:24:40;25.30;;;5.00;;
61525;SDS011;47394;41.366;-8.738;2022-10-31T07:26:58;32.65;;;5.25;;
61525;SDS011;47394;41.366;-8.738;2022-10-31T07:28:59;21.48;;;4.90;;
61525;SDS011;47394;41.366;-8.738;2022-10-31T07:30:59;33.28;;;5.50;;
61525;SDS011;47394;41.366;-8.738;2022-10-31T07:33:00;30.83;;;6.40;;
61525;SDS011;47394;41.366;-8.738;2022-10-31T07:35:21;34.85;;;5.53;;
61525;SDS011;47394;41.366;-8.738;2022-10-31T07:37:28;38.10;;;6.10;;
61525;SDS011;47394;41.366;-8.738;2022-10-31T07:39:30;48.08;;;7.13;;
61525;SDS011;47394;41.366;-8.738;2022-10-31T07:41:30;29.88;;;5.38;;
61525;SDS011;47394;41.366;-8.738;2022-10-31T07:43:31;26.33;;;5.28;;
61525;SDS011;47394;41.366;-8.738;2022-10-31T07:45:51;25.83;;;5.28;;
61525;SDS011;47394;41.366;-8.738;2022-10-31T07:48:10;25.48;;;5.38;;
61525;SDS011;47394;41.366;-8.738;2022-10-31T07:50:30;22.40;;;4.13;;
61525;SDS011;47394;41.366;-8.738;2022-10-31T07:53:05;22.65;;;4.47;;
61525;SDS011;47394;41.366;-8.738;2022-10-31T07:55:42;26.92;;;4.80;;
61525;SDS011;47394;41.366;-8.738;2022-10-31T07:57:42;29.85;;;5.22;;
61525;SDS011;47394;41.366;-8.738;2022-10-31T07:59:43;34.00;;;5.65;;
61525;SDS011;47394;41.366;-8.738;2022-10-31T08:01:45;40.65;;;6.38;;
61525;SDS011;47394;41.366;-8.738;2022-10-31T08:04:05;28.38;;;5.75;;
61525;SDS011;47394;41.366;-8.738;2022-10-31T08:06:25;28.20;;;5.05;;
61525;SDS011;47394;41.366;-8.738;2022-10-31T08:08:25;26.67;;;5.57;;
61525;SDS011;47394;41.366;-8.738;2022-10-31T08:10:30;28.05;;;5.85;;
61525;SDS011;47394;41.366;-8.738;2022-10-31T08:12:30;27.20;;;5.25;;
61525;SDS011;47394;41.366;-8.738;2022-10-31T08:14:31;38.25;;;5.28;;
61525;SDS011;47394;41.366;-8.738;2022-10-31T08:16:32;35.40;;;6.18;;
61525;SDS011;47394;41.366;-8.738;2022-10-31T08:18:35;23.80;;;5.43;;
61525;SDS011;47394;41.366;-8.738;2022-10-31T08:20:38;28.13;;;5.78;;
61525;SDS011;47394;41.366;-8.738;2022-10-31T08:22:38;31.52;;;5.57;;
61525;SDS011;47394;41.366;-8.738;2022-10-31T08:24:39;35.80;;;5.32;;
61525;SDS011;47394;41.366;-8.738;2022-10-31T08:26:39;23.42;;;4.90;;
61525;SDS011;47394;41.366;-8.738;2022-10-31T08:28:43;26.02;;;5.32;;
61525;SDS011;47394;41.366;-8.738;2022-10-31T08:30:44;35.38;;;6.43;;
61525;SDS011;47394;41.366;-8.738;2022-10-31T08:33:08;29.38;;;4.63;;
61525;SDS011;47394;41.366;-8.738;2022-10-31T08:35:27;41.47;;;6.47;;
61525;SDS011;47394;41.366;-8.738;2022-10-31T08:37:54;32.65;;;5.03;;
61525;SDS011;47394;41.366;-8.738;2022-10-31T08:39:58;31.73;;;4.93;;
61525;SDS011;47394;41.366;-8.738;2022-10-31T08:41:59;24.08;;;4.47;;
61525;SDS011;47394;41.366;-8.738;2022-10-31T08:44:00;28.23;;;4.88;;
61525;SDS011;47394;41.366;-8.738;2022-10-31T08:46:00;26.45;;;4.78;;
61525;SDS011;47394;41.366;-8.738;2022-10-31T08:48:03;25.48;;;4.25;;
61525;SDS011;47394;41.366;-8.738;2022-10-31T08:50:04;32.77;;;4.90;;
61525;SDS011;47394;41.366;-8.738;2022-10-31T08:52:05;34.10;;;5.30;;
61525;SDS011;47394;41.366;-8.738;2022-10-31T08:54:11;27.42;;;5.35;;
61525;SDS011;47394;41.366;-8.738;2022-10-31T08:56:23;31.77;;;6.23;;
61525;SDS011;47394;41.366;-8.738;2022-10-31T08:58:24;34.28;;;5.90;;
61525;SDS011;47394;41.366;-8.738;2022-10-31T09:00:28;35.08;;;6.07;;
61525;SDS011;47394;41.366;-8.738;2022-10-31T09:02:39;22.95;;;4.75;;
61525;SDS011;47394;41.366;-8.738;2022-10-31T09:04:40;19.02;;;4.88;;
61525;SDS011;47394;41.366;-8.738;2022-10-31T09:06:41;48.13;;;6.63;;
61525;SDS011;47394;41.366;-8.738;2022-10-31T09:08:41;18.90;;;4.40;;
61525;SDS011;47394;41.366;-8.738;2022-10-31T09:10:42;34.20;;;5.15;;
61525;SDS011;47394;41.366;-8.738;2022-10-31T09:12:42;29.98;;;5.05;;
61525;SDS011;47394;41.366;-8.738;2022-10-31T09:15:21;26.52;;;5.15;;
61525;SDS011;47394;41.366;-8.738;2022-10-31T09:17:30;31.58;;;5.43;;
61525;SDS011;47394;41.366;-8.738;2022-10-31T09:20:00;45.00;;;6.97;;
61525;SDS011;47394;41.366;-8.738;2022-10-31T09:22:05;37.83;;;7.10;;
61525;SDS011;47394;41.366;-8.738;2022-10-31T09:24:06;46.80;;;7.80;;
61525;SDS011;47394;41.366;-8.738;2022-10-31T09:26:06;32.17;;;6.07;;
61525;SDS011;47394;41.366;-8.738;2022-10-31T09:28:26;32.13;;;5.15;;
61525;SDS011;47394;41.366;-8.738;2022-10-31T09:30:29;37.83;;;5.88;;
61525;SDS011;47394;41.366;-8.738;2022-10-31T09:32:29;29.50;;;5.80;;
61525;SDS011;47394;41.366;-8.738;2022-10-31T09:34:30;35.15;;;6.35;;
61525;SDS011;47394;41.366;-8.738;2022-10-31T09:36:42;38.55;;;5.93;;
61525;SDS011;47394;41.366;-8.738;2022-10-31T09:38:52;39.95;;;6.10;;
61525;SDS011;47394;41.366;-8.738;2022-10-31T09:41:01;30.05;;;5.78;;
61525;SDS011;47394;41.366;-8.738;2022-10-31T09:45:07;23.40;;;5.32;;
61525;SDS011;47394;41.366;-8.738;2022-10-31T09:49:39;30.02;;;5.25;;
61525;SDS011;47394;41.366;-8.738;2022-10-31T09:51:45;36.47;;;5.43;;
61525;SDS011;47394;41.366;-8.738;2022-10-31T09:53:58;28.70;;;5.05;;
61525;SDS011;47394;41.366;-8.738;2022-10-31T09:56:00;26.83;;;5.28;;
61525;SDS011;47394;41.366;-8.738;2022-10-31T09:58:01;37.25;;;5.85;;
61525;SDS011;47394;41.366;-8.738;2022-10-31T10:00:04;32.75;;;5.70;;
61525;SDS011;47394;41.366;-8.738;2022-10-31T10:04:27;45.10;;;6.18;;
61525;SDS011;47394;41.366;-8.738;2022-10-31T10:06:40;41.00;;;7.35;;
61525;SDS011;47394;41.366;-8.738;2022-10-31T10:09:06;52.75;;;7.68;;
61525;SDS011;47394;41.366;-8.738;2022-10-31T10:11:40;55.40;;;7.10;;
61525;SDS011;47394;41.366;-8.738;2022-10-31T10:16:02;52.33;;;7.75;;
61525;SDS011;47394;41.366;-8.738;2022-10-31T10:24:27;54.28;;;7.95;;
61525;SDS011;47394;41.366;-8.738;2022-10-31T10:26:36;47.53;;;6.95;;
61525;SDS011;47394;41.366;-8.738;2022-10-31T10:28:38;44.95;;;7.18;;
61525;SDS011;47394;41.366;-8.738;2022-10-31T10:30:44;38.60;;;5.75;;
61525;SDS011;47394;41.366;-8.738;2022-10-31T10:34:51;33.65;;;5.38;;
61525;SDS011;47394;41.366;-8.738;2022-10-31T10:37:00;36.15;;;5.50;;
61525;SDS011;47394;41.366;-8.738;2022-10-31T10:39:03;33.35;;;5.13;;
61525;SDS011;47394;41.366;-8.738;2022-10-31T10:41:27;30.80;;;4.38;;
61525;SDS011;47394;41.366;-8.738;2022-10-31T10:43:35;31.35;;;4.63;;
61525;SDS011;47394;41.366;-8.738;2022-10-31T10:45:36;39.97;;;5.72;;
61525;SDS011;47394;41.366;-8.738;2022-10-31T10:47:59;36.78;;;5.55;;
61525;SDS011;47394;41.366;-8.738;2022-10-31T10:50:00;32.35;;;4.45;;
61525;SDS011;47394;41.366;-8.738;2022-10-31T10:54:07;41.72;;;5.60;;
61525;SDS011;47394;41.366;-8.738;2022-10-31T10:58:44;37.85;;;6.57;;
61525;SDS011;47394;41.366;-8.738;2022-10-31T11:00:45;43.28;;;6.65;;
61525;SDS011;47394;41.366;-8.738;2022-10-31T11:02:47;34.93;;;6.17;;
61525;SDS011;47394;41.366;-8.738;2022-10-31T11:04:55;36.70;;;5.45;;
61525;SDS011;47394;41.366;-8.738;2022-10-31T11:07:00;47.42;;;6.18;;
61525;SDS011;47394;41.366;-8.738;2022-10-31T11:09:08;43.40;;;6.80;;
61525;SDS011;47394;41.366;-8.738;2022-10-31T11:13:21;41.97;;;6.03;;
61525;SDS011;47394;41.366;-8.738;2022-10-31T11:15:24;44.67;;;5.82;;
61525;SDS011;47394;41.366;-8.738;2022-10-31T11:17:33;48.35;;;6.55;;
61525;SDS011;47394;41.366;-8.738;2022-10-31T11:19:34;57.83;;;6.68;;
61525;SDS011;47394;41.366;-8.738;2022-10-31T11:21:35;62.55;;;7.30;;
61525;SDS011;47394;41.366;-8.738;2022-10-31T11:23:35;60.00;;;7.07;;
61525;SDS011;47394;41.366;-8.738;2022-10-31T11:25:36;47.75;;;7.63;;
61525;SDS011;47394;41.366;-8.738;2022-10-31T11:27:36;55.53;;;6.80;;
61525;SDS011;47394;41.366;-8.738;2022-10-31T11:29:37;64.80;;;7.88;;
61525;SDS011;47394;41.366;-8.738;2022-10-31T11:31:37;63.55;;;7.72;;
61525;SDS011;47394;41.366;-8.738;2022-10-31T11:33:45;58.88;;;8.27;;
61525;SDS011;47394;41.366;-8.738;2022-10-31T11:35:46;49.17;;;7.45;;
61525;SDS011;47394;41.366;-8.738;2022-10-31T11:37:48;62.08;;;7.15;;
61525;SDS011;47394;41.366;-8.738;2022-10-31T11:39:58;61.00;;;7.50;;
61525;SDS011;47394;41.366;-8.738;2022-10-31T11:42:00;51.05;;;6.88;;
61525;SDS011;47394;41.366;-8.738;2022-10-31T11:44:03;51.33;;;6.85;;
61525;SDS011;47394;41.366;-8.738;2022-10-31T11:46:08;56.25;;;7.20;;
61525;SDS011;47394;41.366;-8.738;2022-10-31T11:48:16;59.20;;;7.22;;
61525;SDS011;47394;41.366;-8.738;2022-10-31T11:50:21;67.15;;;7.50;;
61525;SDS011;47394;41.366;-8.738;2022-10-31T11:52:23;42.03;;;7.53;;
61525;SDS011;47394;41.366;-8.738;2022-10-31T11:54:26;59.88;;;7.45;;
61525;SDS011;47394;41.366;-8.738;2022-10-31T11:56:27;41.00;;;8.02;;
61525;SDS011;47394;41.366;-8.738;2022-10-31T11:58:37;48.28;;;7.53;;
61525;SDS011;47394;41.366;-8.738;2022-10-31T12:00:38;43.38;;;6.32;;
61525;SDS011;47394;41.366;-8.738;2022-10-31T12:02:38;51.08;;;6.88;;
61525;SDS011;47394;41.366;-8.738;2022-10-31T12:04:44;39.50;;;7.07;;
61525;SDS011;47394;41.366;-8.738;2022-10-31T12:06:47;38.58;;;5.55;;
61525;SDS011;47394;41.366;-8.738;2022-10-31T12:08:47;44.17;;;6.80;;
61525;SDS011;47394;41.366;-8.738;2022-10-31T12:10:51;42.15;;;6.95;;
61525;SDS011;47394;41.366;-8.738;2022-10-31T12:13:07;44.47;;;6.50;;
61525;SDS011;47394;41.366;-8.738;2022-10-31T12:17:19;40.53;;;6.50;;
61525;SDS011;47394;41.366;-8.738;2022-10-31T12:30:23;32.50;;;5.25;;
61525;SDS011;47394;41.366;-8.738;2022-10-31T12:32:43;45.20;;;5.90;;
61525;SDS011;47394;41.366;-8.738;2022-10-31T12:34:53;36.83;;;6.28;;
61525;SDS011;47394;41.366;-8.738;2022-10-31T12:39:27;43.72;;;6.03;;
61525;SDS011;47394;41.366;-8.738;2022-10-31T12:45:55;43.65;;;6.18;;
61525;SDS011;47394;41.366;-8.738;2022-10-31T12:50:26;35.50;;;6.07;;
61525;SDS011;47394;41.366;-8.738;2022-10-31T12:52:38;31.38;;;5.85;;
61525;SDS011;47394;41.366;-8.738;2022-10-31T12:57:19;26.95;;;4.97;;
61525;SDS011;47394;41.366;-8.738;2022-10-31T13:01:23;35.45;;;5.82;;
61525;SDS011;47394;41.366;-8.738;2022-10-31T13:05:27;31.42;;;5.07;;
61525;SDS011;47394;41.366;-8.738;2022-10-31T13:07:30;30.65;;;6.05;;
61525;SDS011;47394;41.366;-8.738;2022-10-31T13:09:35;28.77;;;5.68;;
61525;SDS011;47394;41.366;-8.738;2022-10-31T13:11:39;31.63;;;5.97;;
61525;SDS011;47394;41.366;-8.738;2022-10-31T13:13:53;38.50;;;6.07;;
61525;SDS011;47394;41.366;-8.738;2022-10-31T13:16:00;35.95;;;6.28;;
61525;SDS011;47394;41.366;-8.738;2022-10-31T13:18:05;39.72;;;5.72;;
61525;SDS011;47394;41.366;-8.738;2022-10-31T13:22:17;45.55;;;5.93;;
61525;SDS011;47394;41.366;-8.738;2022-10-31T13:24:23;27.33;;;5.13;;
61525;SDS011;47394;41.366;-8.738;2022-10-31T13:27:01;39.80;;;5.95;;
61525;SDS011;47394;41.366;-8.738;2022-10-31T13:30:57;37.38;;;5.82;;
61525;SDS011;47394;41.366;-8.738;2022-10-31T13:34:58;42.95;;;6.35;;
61525;SDS011;47394;41.366;-8.738;2022-10-31T13:39:21;33.78;;;5.25;;
61525;SDS011;47394;41.366;-8.738;2022-10-31T13:45:34;36.22;;;5.30;;
61525;SDS011;47394;41.366;-8.738;2022-10-31T13:47:34;31.67;;;5.15;;
61525;SDS011;47394;41.366;-8.738;2022-10-31T13:49:36;41.28;;;4.97;;